LIRNLIBR

Guest
Details From LIRN - Naples Capodichino
To LIBR - BRINDISI/Casale
Flight Number -
Tags generated
Created
Modified
Stats Distance 168 nm / 311 km
Max Altitude 17,200 ft / 5,243 m
Waypoints 3
Social Downloads 2
Likes 0
Share VATSIM

Download

Looking for another format? Having issues loading an existing format? Contact us
Advertisement - Login to hide

Notes

Basic altitude profile: - Ascent Rate: 2500ft/min - Ascent Speed: 250kts - Cruise Altitude: 35000ft - Cruise Speed: 420kts - Descent Rate: 1500ft/min - Descent Speed: 250kts Options: - Use NATs: yes - Use PACOTS: yes - Use low airways: yes - Use high airways: yes

Route

LIRN TOPNO LIBR

ID Type Via Altitude Latitude Longitude Leg Dist Tot Dist Heading (true) Name
O LIRN APT - 0 ft / 0 m 40.88603˚ 14.29078˚ - 0 nm - Naples Capodichino
TOPNO FIX - 17,200 ft / 5,243 m 40.95167˚ 16.10778˚ 82 nm 82 nm 87° / 88° -
O LIBR APT - 0 ft / 0 m 40.66082˚ 17.94267˚ 85 nm 167 nm 101° / 102° BRINDISI/Casale

Altitude Profile

Advertisement - Login to hide

Weather


0- 5 10 15 20 25 30 35+ Temperature / ° C

Clouds and Precipitation
Forecast for 2017-12-11 18:00 UTC. Updated 39 minutes ago

Ground ~20,000 ft ~40,000 ft Winds

LIRN

Details ICAO LIRN (NAP)
Name Naples Capodichino
Region Italy
Timezone Europe/Rome (UTC+1.0)
Stats Elevation 294 ft / 90 m (AMSL)
Location 40.886032° 14.290783°
Runways 1
Magnetic Variation 3.307° E

METAR

LIRN 111320Z 18014G26KT 9999 SCT030 BKN050 16/11 Q0003 NOSIG

Decode

TAF

TAF LIRN 111100Z 1112/1212 19016G26KT 9999 SCT030 BECMG 1116/1118 17010KT

Decode

Departure Runways

ID Width Length Bearing (true) Bearing (mag) Surface Threshold Offset Overrun Length
06 148 ft / 45 m 8,612 ft / 2,625 m 58.03° 54.72° Asphalt 1,309 ft / 399 m 0 ft / 0 m
24 148 ft / 45 m 8,612 ft / 2,625 m 238.05° 234.74° Asphalt 624 ft / 190 m 0 ft / 0 m

LIBR

Details ICAO LIBR (BDS)
Name BRINDISI/Casale
Region Italy
Timezone Europe/Rome (UTC+1.0)
Stats Elevation 47 ft / 14 m (AMSL)
Location 40.660824° 17.942673°
Runways 2
Magnetic Variation 3.889° E

METAR

LIBR 111315Z 17028G40KT 9999 SCT015 16/12 Q1017 NOSIG

Decode

TAF

TAF LIBR 111100Z 1112/1212 18020G30KT 9999 SCT015 BECMG 1118/1120 16015KT

Decode

Destination Runways

ID Width Length Bearing (true) Bearing (mag) Surface Threshold Offset Overrun Length
13 148 ft / 45 m 9,398 ft / 2,865 m 136.56° 132.67° Asphalt 0 ft / 0 m 689 ft / 210 m
23 148 ft / 45 m 6,129 ft / 1,868 m 232.52° 228.63° Asphalt 230 ft / 70 m 0 ft / 0 m
31 148 ft / 45 m 9,398 ft / 2,865 m 316.58° 312.69° Asphalt 0 ft / 0 m 387 ft / 118 m
5 148 ft / 45 m 6,129 ft / 1,868 m 52.51° 48.62° Asphalt 0 ft / 0 m 0 ft / 0 m

Approach Navaids

Runway Type Ident Frequency Range Bearing (true) Bearing (mag) Slope Elevation
31 Localiser IBN 109.50 MHz 18 nm / 33 km 316.88° 312.99° - 48 ft / 15 m (AMSL)
31 Glidescope IBN 109.50 MHz 10 nm / 19 km 316.57° 312.68° 2.50° 94 ft / 29 m (AMSL)

Popular Alternatives